createdAt,value
2022-11-28T00:02:26.019Z,34.42
2022-11-28T00:04:59.381Z,41.22
2022-11-28T00:07:32.783Z,38.05
2022-11-28T00:10:09.198Z,41.05
2022-11-28T00:12:42.480Z,42.80
2022-11-28T00:15:15.901Z,39.47
2022-11-28T00:17:49.342Z,35.70
2022-11-28T00:20:22.601Z,33.05
2022-11-28T00:22:56.008Z,38.95
2022-11-28T00:25:30.630Z,34.03
2022-11-28T00:28:04.245Z,35.92
2022-11-28T00:30:37.904Z,31.88
2022-11-28T00:33:11.172Z,28.63
2022-11-28T00:35:44.736Z,32.42
2022-11-28T00:38:18.246Z,31.83
2022-11-28T00:41:00.173Z,36.78
2022-11-28T00:43:33.837Z,30.53
2022-11-28T00:46:07.833Z,27.20
2022-11-28T00:48:42.048Z,36.42
2022-11-28T00:51:17.400Z,33.83
2022-11-28T00:53:52.963Z,27.95
2022-11-28T00:56:30.124Z,27.20
2022-11-28T00:59:03.707Z,26.40
2022-11-28T01:01:40.130Z,30.92
2022-11-28T01:04:17.501Z,26.13
2022-11-28T01:06:51.756Z,33.75
2022-11-28T01:09:26.199Z,29.45
2022-11-28T01:12:01.014Z,34.28
2022-11-28T01:14:34.448Z,25.27
2022-11-28T01:17:07.891Z,33.80
2022-11-28T01:19:41.159Z,33.65
2022-11-28T01:22:14.765Z,32.05
2022-11-28T01:24:48.188Z,27.67
2022-11-28T01:27:22.829Z,23.75
2022-11-28T01:29:56.355Z,24.38
2022-11-28T01:32:29.606Z,24.88
2022-11-28T01:35:03.122Z,24.80
2022-11-28T01:37:36.582Z,31.35
2022-11-28T01:40:12.822Z,28.55
2022-11-28T01:42:47.599Z,29.27
2022-11-28T01:45:23.606Z,29.10
2022-11-28T01:48:01.144Z,27.50
2022-11-28T01:50:36.453Z,28.42
2022-11-28T01:53:11.577Z,28.58
2022-11-28T01:55:50.462Z,28.00
2022-11-28T01:58:26.766Z,28.45
2022-11-28T02:01:00.397Z,25.73
2022-11-28T02:03:40.685Z,39.83
2022-11-28T02:06:17.344Z,31.25
2022-11-28T02:08:52.503Z,25.30
2022-11-28T02:11:50.528Z,25.52
2022-11-28T02:14:58.330Z,29.60
2022-11-28T02:17:42.998Z,26.15
2022-11-28T02:20:44.723Z,25.23
2022-11-28T02:23:25.049Z,31.92
2022-11-28T02:26:39.435Z,24.75
2022-11-28T02:29:51.385Z,26.80
2022-11-28T02:32:37.072Z,26.88
2022-11-28T02:35:14.628Z,25.60
2022-11-28T02:38:01.360Z,30.50
2022-11-28T02:40:39.486Z,22.40
2022-11-28T02:43:18.196Z,26.65
2022-11-28T02:45:59.299Z,23.38
2022-11-28T02:48:45.067Z,26.65
2022-11-28T02:51:25.128Z,21.70
2022-11-28T02:53:59.814Z,23.27
2022-11-28T02:56:33.424Z,20.00
2022-11-28T02:59:24.638Z,27.10
2022-11-28T03:01:58.411Z,23.40
2022-11-28T03:04:42.397Z,20.70
2022-11-28T03:07:29.339Z,19.52
2022-11-28T03:10:13.672Z,23.90
2022-11-28T03:12:57.119Z,25.05
2022-11-28T03:15:40.426Z,19.25
2022-11-28T03:18:20.431Z,25.52
2022-11-28T03:20:58.321Z,21.08
2022-11-28T03:23:39.171Z,25.98
2022-11-28T03:26:18.777Z,17.10
2022-11-28T03:28:56.974Z,22.80
2022-11-28T03:31:37.943Z,18.33
2022-11-28T03:34:16.085Z,24.50
2022-11-28T03:36:55.940Z,20.00
2022-11-28T03:39:32.195Z,18.48
2022-11-28T03:42:10.703Z,16.85
2022-11-28T03:44:49.843Z,16.15
2022-11-28T03:47:25.705Z,18.02
2022-11-28T03:50:05.871Z,20.35
2022-11-28T03:52:45.100Z,17.35
2022-11-28T03:55:23.478Z,17.58
2022-11-28T03:58:01.119Z,12.15
2022-11-28T04:00:36.864Z,17.35
2022-11-28T04:03:19.411Z,19.98
2022-11-28T04:05:57.033Z,13.95
2022-11-28T04:08:36.490Z,13.55
2022-11-28T04:11:14.792Z,19.25
2022-11-28T04:13:55.058Z,15.95
2022-11-28T04:16:35.911Z,12.07
2022-11-28T04:19:16.119Z,12.73
2022-11-28T04:21:55.509Z,13.27
2022-11-28T04:24:34.254Z,17.17
2022-11-28T04:27:11.322Z,13.55
2022-11-28T04:29:47.489Z,14.82
2022-11-28T04:32:22.146Z,11.63
2022-11-28T04:34:59.096Z,13.82
2022-11-28T04:37:35.525Z,13.05
2022-11-28T04:40:13.051Z,13.00
2022-11-28T04:42:52.966Z,17.13
2022-11-28T04:45:31.757Z,18.42
2022-11-28T04:48:06.183Z,11.88
2022-11-28T04:50:44.702Z,15.45
2022-11-28T04:53:26.955Z,11.93
2022-11-28T04:56:06.159Z,13.07
2022-11-28T04:58:43.077Z,13.35
2022-11-28T05:01:22.128Z,10.27
2022-11-28T05:03:56.199Z,11.02
2022-11-28T05:06:32.066Z,11.73
2022-11-28T05:09:06.743Z,14.35
2022-11-28T05:11:41.646Z,11.27
2022-11-28T05:14:19.157Z,11.20
2022-11-28T05:16:52.800Z,14.50
2022-11-28T05:19:26.122Z,12.32
2022-11-28T05:21:59.684Z,11.75
2022-11-28T05:24:32.925Z,11.27
2022-11-28T05:27:08.366Z,12.23
2022-11-28T05:29:46.885Z,14.63
2022-11-28T05:32:23.099Z,15.52
2022-11-28T05:34:56.388Z,14.50
2022-11-28T05:37:29.664Z,11.63
2022-11-28T05:40:03.151Z,13.63
2022-11-28T05:42:38.264Z,9.80
2022-11-28T05:45:11.869Z,12.52
2022-11-28T05:47:45.170Z,14.63
2022-11-28T05:50:18.906Z,14.70
2022-11-28T05:52:52.243Z,13.30
2022-11-28T05:55:25.981Z,11.77
2022-11-28T05:58:00.716Z,13.52
2022-11-28T06:00:33.991Z,13.32
2022-11-28T06:03:07.340Z,13.82
2022-11-28T06:05:43.554Z,14.23
2022-11-28T06:08:17.207Z,16.17
2022-11-28T06:10:58.159Z,15.13
2022-11-28T06:13:32.817Z,23.63
2022-11-28T06:16:09.312Z,17.63
2022-11-28T06:18:43.258Z,24.67
2022-11-28T06:21:16.995Z,24.95
2022-11-28T06:23:51.299Z,15.88
2022-11-28T06:26:25.846Z,20.92
2022-11-28T06:29:00.560Z,18.00
2022-11-28T06:31:34.329Z,18.25
2022-11-28T06:34:07.664Z,15.13
2022-11-28T06:36:41.381Z,14.73
2022-11-28T06:39:15.702Z,14.25
2022-11-28T06:41:48.987Z,14.20
2022-11-28T06:44:23.608Z,11.02
2022-11-28T06:46:57.027Z,12.90
2022-11-28T06:49:30.439Z,12.20
2022-11-28T06:52:04.107Z,11.32
2022-11-28T06:54:37.354Z,13.00
2022-11-28T06:57:10.788Z,13.43
2022-11-28T06:59:45.564Z,19.10
2022-11-28T07:02:18.941Z,23.63
2022-11-28T07:04:52.384Z,18.23
2022-11-28T07:07:26.097Z,21.90
2022-11-28T07:09:59.388Z,28.52
2022-11-28T07:12:32.761Z,34.03
2022-11-28T07:15:08.542Z,34.15
2022-11-28T07:17:41.865Z,29.98
2022-11-28T07:20:15.725Z,24.25
2022-11-28T07:22:49.687Z,27.38
2022-11-28T07:25:22.989Z,34.47
2022-11-28T07:27:56.287Z,25.10
2022-11-28T07:30:30.955Z,25.77
2022-11-28T07:33:04.299Z,24.67
2022-11-28T07:35:37.597Z,31.58
2022-11-28T07:38:10.997Z,31.20
2022-11-28T07:40:45.389Z,37.70
2022-11-28T07:43:18.637Z,31.75
2022-11-28T07:46:00.977Z,37.20
2022-11-28T07:48:35.149Z,32.65
2022-11-28T07:51:10.426Z,40.58
2022-11-28T07:53:44.423Z,30.00
2022-11-28T07:56:21.515Z,31.95
2022-11-28T07:58:57.885Z,26.60
2022-11-28T08:01:36.981Z,32.42
2022-11-28T08:04:11.248Z,39.05
2022-11-28T08:06:44.672Z,36.78
2022-11-28T08:09:17.987Z,53.40
2022-11-28T08:11:52.593Z,53.38
2022-11-28T08:14:25.991Z,31.25
2022-11-28T08:17:00.679Z,35.90
2022-11-28T08:19:35.466Z,37.28
2022-11-28T08:22:08.860Z,42.47
2022-11-28T08:24:42.448Z,36.67
2022-11-28T08:27:15.909Z,30.55
2022-11-28T08:29:52.130Z,22.42
2022-11-28T08:32:30.349Z,35.33
2022-11-28T08:35:03.698Z,32.63
2022-11-28T08:37:36.966Z,23.15
2022-11-28T08:40:10.660Z,21.75
2022-11-28T08:42:43.891Z,22.13
2022-11-28T08:45:17.234Z,15.55
2022-11-28T08:47:51.882Z,15.15
2022-11-28T08:50:25.172Z,12.52
2022-11-28T08:53:01.716Z,24.48
2022-11-28T08:55:42.489Z,19.23
2022-11-28T08:58:16.494Z,22.95
2022-11-28T09:00:49.887Z,20.08
2022-11-28T09:03:25.149Z,17.77
2022-11-28T09:06:02.248Z,22.00
2022-11-28T09:08:35.686Z,20.40
2022-11-28T09:11:09.770Z,13.52
2022-11-28T09:13:43.117Z,14.27
2022-11-28T09:16:17.231Z,11.75
2022-11-28T09:18:52.493Z,12.38
2022-11-28T09:21:25.930Z,11.63
2022-11-28T09:23:59.198Z,4.82
2022-11-28T09:26:33.324Z,8.25
2022-11-28T09:29:06.844Z,7.32
2022-11-28T09:31:45.812Z,6.47
2022-11-28T09:34:21.987Z,8.75
2022-11-28T09:36:55.288Z,8.63
2022-11-28T09:39:32.722Z,6.57
2022-11-28T09:42:23.284Z,6.97
2022-11-28T09:45:01.474Z,6.45
2022-11-28T09:47:37.910Z,6.18
2022-11-28T09:50:16.806Z,4.55
2022-11-28T09:52:55.889Z,3.58
2022-11-28T09:55:36.499Z,7.05
2022-11-28T09:58:16.607Z,6.38
2022-11-28T10:00:58.900Z,6.10
2022-11-28T10:03:43.370Z,10.25
2022-11-28T10:06:24.824Z,5.43
2022-11-28T10:09:26.095Z,6.65
2022-11-28T10:12:16.548Z,5.78
2022-11-28T10:15:01.616Z,9.60
2022-11-28T10:17:44.303Z,5.65
2022-11-28T10:22:58.685Z,5.32
2022-11-28T10:25:36.192Z,8.13
2022-11-28T10:28:17.405Z,6.82
2022-11-28T10:30:55.973Z,9.93
2022-11-28T10:33:33.056Z,10.07
2022-11-28T10:36:07.559Z,14.75
2022-11-28T10:38:42.206Z,10.32
2022-11-28T10:41:19.665Z,10.70
2022-11-28T10:43:59.705Z,6.47
2022-11-28T10:46:55.612Z,8.30
2022-11-28T10:49:39.689Z,9.05
2022-11-28T10:52:21.202Z,6.45
2022-11-28T10:55:12.579Z,8.70
2022-11-28T10:57:56.716Z,10.32
2022-11-28T11:00:30.296Z,8.63
2022-11-28T11:03:05.932Z,18.20
2022-11-28T11:05:39.525Z,8.45
2022-11-28T11:08:20.519Z,6.63
2022-11-28T11:11:02.722Z,25.45
2022-11-28T11:13:55.053Z,24.23
2022-11-28T11:16:48.671Z,7.30
2022-11-28T11:19:26.708Z,11.18
2022-11-28T11:22:02.662Z,7.13
2022-11-28T11:24:36.039Z,9.40
2022-11-28T11:27:18.958Z,8.02
2022-11-28T11:29:53.350Z,5.43
2022-11-28T11:32:29.820Z,6.75
2022-11-28T11:35:03.704Z,8.57
2022-11-28T11:37:38.563Z,11.82
2022-11-28T11:40:26.006Z,6.93
2022-11-28T11:43:02.258Z,6.78
2022-11-28T11:45:36.933Z,7.35
2022-11-28T11:48:13.750Z,8.32
2022-11-28T11:50:55.555Z,11.05
2022-11-28T11:53:28.831Z,14.00
2022-11-28T11:56:04.754Z,29.40
2022-11-28T11:58:45.669Z,10.00
2022-11-28T12:01:20.817Z,17.95
2022-11-28T12:04:05.628Z,9.82
2022-11-28T12:06:51.537Z,8.88
2022-11-28T12:09:31.273Z,11.68
2022-11-28T12:12:14.292Z,8.85
2022-11-28T12:14:50.777Z,11.05
2022-11-28T12:17:52.356Z,6.15
2022-11-28T12:20:47.154Z,9.57
2022-11-28T12:23:42.855Z,8.90
2022-11-28T12:26:24.294Z,11.02
2022-11-28T12:29:13.204Z,8.02
2022-11-28T12:31:56.990Z,15.90
2022-11-28T12:34:40.224Z,6.93
2022-11-28T12:37:42.075Z,7.40
2022-11-28T12:40:26.681Z,9.10
2022-11-28T12:43:14.501Z,9.25
2022-11-28T12:45:55.742Z,7.35
2022-11-28T12:48:52.865Z,7.75
2022-11-28T12:51:37.457Z,8.90
2022-11-28T12:54:37.772Z,7.75
2022-11-28T12:57:19.931Z,7.93
2022-11-28T13:00:03.620Z,7.45
2022-11-28T13:02:57.333Z,7.18
2022-11-28T13:05:45.123Z,7.85
2022-11-28T13:08:54.884Z,11.38
2022-11-28T13:11:41.419Z,6.40
2022-11-28T13:14:24.861Z,7.72
2022-11-28T13:17:17.580Z,9.80
2022-11-28T13:19:57.264Z,6.40
2022-11-28T13:22:41.029Z,6.18
2022-11-28T13:25:26.132Z,7.88
2022-11-28T13:28:09.651Z,9.77
2022-11-28T13:30:47.836Z,8.48
2022-11-28T13:33:33.598Z,5.45
2022-11-28T13:36:10.160Z,6.22
2022-11-28T13:39:11.894Z,8.88
2022-11-28T13:42:21.482Z,6.50
2022-11-28T13:44:51.251Z,6.22
2022-11-28T13:47:30.611Z,9.40
2022-11-28T13:50:39.220Z,7.72
2022-11-28T13:53:24.250Z,5.70
2022-11-28T13:56:24.060Z,6.15
2022-11-28T13:59:00.804Z,8.00
2022-11-28T14:01:45.810Z,8.77
2022-11-28T14:04:20.361Z,8.43
2022-11-28T14:06:59.175Z,9.05
2022-11-28T14:09:45.000Z,7.90
2022-11-28T14:12:28.140Z,9.38
2022-11-28T14:15:15.702Z,7.10
2022-11-28T14:18:00.696Z,8.63
2022-11-28T14:20:40.095Z,10.38
2022-11-28T14:23:23.444Z,7.45
2022-11-28T14:25:58.037Z,12.85
2022-11-28T14:28:36.949Z,11.82
2022-11-28T14:31:25.840Z,6.57
2022-11-28T14:34:01.132Z,8.02
2022-11-28T14:36:37.475Z,9.30
2022-11-28T14:39:33.737Z,9.13
2022-11-28T14:45:47.268Z,9.10
2022-11-28T14:48:30.670Z,9.82
2022-11-28T14:51:05.299Z,6.60
2022-11-28T14:53:45.248Z,7.90
2022-11-28T14:56:28.949Z,11.32
2022-11-28T14:59:04.609Z,23.02
2022-11-28T15:01:57.024Z,26.10
2022-11-28T15:04:48.976Z,23.02
2022-11-28T15:07:35.635Z,25.88
2022-11-28T15:10:15.214Z,24.75
2022-11-28T15:12:58.894Z,21.20
2022-11-28T15:18:08.186Z,13.02
2022-11-28T15:20:48.527Z,18.17
2022-11-28T15:23:26.615Z,20.88
2022-11-28T15:26:02.103Z,22.35
2022-11-28T15:28:36.180Z,23.25
2022-11-28T15:31:22.735Z,34.25
2022-11-28T15:33:57.766Z,30.65
2022-11-28T15:36:31.714Z,24.25
2022-11-28T15:39:05.493Z,32.10
2022-11-28T15:41:39.485Z,48.42
2022-11-28T15:44:16.518Z,54.40
2022-11-28T15:46:50.316Z,71.28
2022-11-28T15:49:27.589Z,31.80
2022-11-28T15:52:02.529Z,60.65
2022-11-28T15:54:41.064Z,34.75
2022-11-28T15:57:23.576Z,32.42
2022-11-28T15:59:57.563Z,24.48
2022-11-28T16:02:35.252Z,42.78
2022-11-28T16:05:12.472Z,44.78
2022-11-28T16:07:46.213Z,25.63
2022-11-28T16:10:23.928Z,40.65
2022-11-28T16:13:00.956Z,41.78
2022-11-28T16:15:34.402Z,41.10
2022-11-28T16:18:07.944Z,58.17
2022-11-28T16:20:43.353Z,55.53
2022-11-28T16:23:21.416Z,55.33
2022-11-28T16:26:02.606Z,67.28
2022-11-28T16:28:38.103Z,55.83
2022-11-28T16:31:12.604Z,81.20
2022-11-28T16:33:47.844Z,82.68
2022-11-28T16:36:24.655Z,79.30
2022-11-28T16:39:07.642Z,56.90
2022-11-28T16:41:43.940Z,54.05
2022-11-28T16:44:22.175Z,51.35
2022-11-28T16:46:57.752Z,39.33
2022-11-28T16:49:35.653Z,33.05
2022-11-28T16:52:43.798Z,48.42
2022-11-28T16:55:44.245Z,95.32
2022-11-28T16:58:20.868Z,49.40
2022-11-28T17:01:04.008Z,119.57
2022-11-28T17:03:51.851Z,104.18
2022-11-28T17:06:28.721Z,111.35
2022-11-28T17:09:04.304Z,109.38
2022-11-28T17:11:41.473Z,113.90
2022-11-28T17:14:15.587Z,108.35
2022-11-28T17:16:49.287Z,76.10
2022-11-28T17:19:23.115Z,74.53
2022-11-28T17:22:00.231Z,82.00
2022-11-28T17:24:36.853Z,69.53
2022-11-28T17:27:13.090Z,70.38
2022-11-28T17:29:46.668Z,98.72
2022-11-28T17:32:20.369Z,57.08
2022-11-28T17:34:53.647Z,92.53
2022-11-28T17:37:27.069Z,93.35
2022-11-28T17:40:19.486Z,75.35
2022-11-28T17:42:52.836Z,62.55
2022-11-28T17:45:26.730Z,88.30
2022-11-28T17:48:00.454Z,95.88
2022-11-28T17:50:34.255Z,89.88
2022-11-28T17:53:07.673Z,65.35
2022-11-28T17:55:43.718Z,73.18
2022-11-28T17:58:19.180Z,84.40
2022-11-28T18:00:57.332Z,86.75
2022-11-28T18:03:33.486Z,95.88
2022-11-28T18:06:07.875Z,91.80
2022-11-28T18:08:41.149Z,85.95
2022-11-28T18:11:17.713Z,80.57
2022-11-28T18:13:51.037Z,79.85
2022-11-28T18:16:26.469Z,71.50
2022-11-28T18:18:59.859Z,77.35
2022-11-28T18:21:33.503Z,84.45
2022-11-28T18:24:08.038Z,100.10
2022-11-28T18:26:42.802Z,85.63
2022-11-28T18:29:16.110Z,64.78
2022-11-28T18:31:49.445Z,73.93
2022-11-28T18:34:22.833Z,100.90
2022-11-28T18:37:00.732Z,85.80
2022-11-28T18:39:37.506Z,71.15
2022-11-28T18:42:12.225Z,82.18
2022-11-28T18:44:45.556Z,64.20
2022-11-28T18:47:18.836Z,71.20
2022-11-28T18:49:52.779Z,58.78
2022-11-28T18:52:26.079Z,52.50
2022-11-28T18:54:59.400Z,75.35
2022-11-28T18:57:34.815Z,72.65
2022-11-28T19:00:09.665Z,65.80
2022-11-28T19:02:43.116Z,65.57
2022-11-28T19:05:16.960Z,79.20
2022-11-28T19:07:50.445Z,68.60
2022-11-28T19:10:23.878Z,77.15
2022-11-28T19:12:58.572Z,84.97
2022-11-28T19:15:31.967Z,115.47
2022-11-28T19:18:05.594Z,79.18
2022-11-28T19:20:43.427Z,105.93
2022-11-28T19:23:16.864Z,96.50
2022-11-28T19:25:50.217Z,126.82
2022-11-28T19:28:25.071Z,120.10
2022-11-28T19:31:06.391Z,124.78
2022-11-28T19:33:39.772Z,116.80
2022-11-28T19:36:14.712Z,93.40
2022-11-28T19:38:48.089Z,99.15
2022-11-28T19:41:22.564Z,100.55
2022-11-28T19:43:58.198Z,105.05
2022-11-28T19:46:35.317Z,117.53
2022-11-28T19:49:16.510Z,143.65
2022-11-28T19:51:50.588Z,109.35
2022-11-28T19:54:23.873Z,115.28
2022-11-28T19:56:59.699Z,130.32
2022-11-28T19:59:34.343Z,176.95
2022-11-28T20:02:08.019Z,100.47
2022-11-28T20:04:43.463Z,101.53
2022-11-28T20:07:16.927Z,146.15
2022-11-28T20:09:50.262Z,142.45
2022-11-28T20:12:23.676Z,131.20
2022-11-28T20:14:58.970Z,124.40
2022-11-28T20:17:32.227Z,155.52
2022-11-28T20:20:06.559Z,136.13
2022-11-28T20:22:39.919Z,180.23
2022-11-28T20:25:17.840Z,164.32
2022-11-28T20:27:55.750Z,152.13
2022-11-28T20:30:30.988Z,145.10
2022-11-28T20:33:04.504Z,150.82
2022-11-28T20:35:37.805Z,176.57
2022-11-28T20:38:11.092Z,205.48
2022-11-28T20:40:44.336Z,248.95
2022-11-28T20:43:17.662Z,223.95
2022-11-28T20:45:52.463Z,275.83
2022-11-28T20:48:25.845Z,189.30
2022-11-28T20:50:59.418Z,223.63
2022-11-28T20:53:33.023Z,202.73
2022-11-28T20:56:09.433Z,236.98
2022-11-28T20:58:43.240Z,171.40
2022-11-28T21:01:19.999Z,208.15
2022-11-28T21:03:53.843Z,180.40
2022-11-28T21:06:27.343Z,282.58
2022-11-28T21:09:00.694Z,309.20
2022-11-28T21:11:56.373Z,238.52
2022-11-28T21:14:28.439Z,222.55
2022-11-28T21:17:03.657Z,231.48
2022-11-28T21:19:36.999Z,294.27
2022-11-28T21:22:10.236Z,278.45
2022-11-28T21:24:44.989Z,278.88
2022-11-28T21:27:18.499Z,253.88
2022-11-28T21:29:52.160Z,214.25
2022-11-28T21:32:26.819Z,249.77
2022-11-28T21:35:04.262Z,258.50
2022-11-28T21:37:38.067Z,263.63
2022-11-28T21:40:12.569Z,241.68
2022-11-28T21:42:46.006Z,248.15
2022-11-28T21:45:19.412Z,269.10
2022-11-28T21:47:54.166Z,247.05
2022-11-28T21:50:28.826Z,237.60
2022-11-28T21:53:02.139Z,255.85
2022-11-28T21:55:35.392Z,210.43
2022-11-28T21:58:09.717Z,211.07
2022-11-28T22:00:53.472Z,227.80
2022-11-28T22:03:32.515Z,241.25
2022-11-28T22:06:07.804Z,205.88
2022-11-28T22:08:41.332Z,201.48
2022-11-28T22:11:14.985Z,217.55
2022-11-28T22:13:50.308Z,215.35
2022-11-28T22:16:26.192Z,215.45
2022-11-28T22:19:01.974Z,224.18
2022-11-28T22:21:55.444Z,186.40
2022-11-28T22:24:29.715Z,227.95
2022-11-28T22:27:03.060Z,224.95
2022-11-28T22:29:36.554Z,208.75
2022-11-28T22:32:09.947Z,193.20
2022-11-28T22:34:45.719Z,193.02
2022-11-28T22:37:19.308Z,185.80
2022-11-28T22:39:52.844Z,188.13
2022-11-28T22:42:26.095Z,187.60
2022-11-28T22:44:59.347Z,187.75
2022-11-28T22:47:33.696Z,191.15
2022-11-28T22:50:10.189Z,187.75
2022-11-28T22:52:44.232Z,182.45
2022-11-28T22:55:17.656Z,207.13
2022-11-28T22:57:51.041Z,164.85
2022-11-28T23:00:24.326Z,191.63
2022-11-28T23:02:57.739Z,180.25
2022-11-28T23:05:32.923Z,176.02
2022-11-28T23:08:07.702Z,178.65
2022-11-28T23:10:41.095Z,193.07
2022-11-28T23:13:14.595Z,193.55
2022-11-28T23:15:52.647Z,177.27
2022-11-28T23:18:26.712Z,192.38
2022-11-28T23:21:01.347Z,176.02
2022-11-28T23:23:35.478Z,173.00
2022-11-28T23:26:11.485Z,182.13
2022-11-28T23:28:45.339Z,179.25
2022-11-28T23:31:22.095Z,200.82
2022-11-28T23:33:55.795Z,181.40
2022-11-28T23:36:36.990Z,155.20
2022-11-28T23:39:17.253Z,173.30
2022-11-28T23:41:51.496Z,177.13
2022-11-28T23:44:24.785Z,163.38
2022-11-28T23:46:58.126Z,151.10
2022-11-28T23:49:31.401Z,149.30
2022-11-28T23:52:06.356Z,152.73
2022-11-28T23:54:39.632Z,164.73
2022-11-28T23:57:12.893Z,156.77
2022-11-28T23:59:46.258Z,158.15
